createdAt,value
2023-02-17T00:01:31.526Z,7.40
2023-02-17T00:04:00.275Z,7.50
2023-02-17T00:06:29.642Z,7.40
2023-02-17T00:08:58.227Z,7.40
2023-02-17T00:11:29.242Z,7.50
2023-02-17T00:13:57.980Z,7.60
2023-02-17T00:16:28.006Z,7.60
2023-02-17T00:19:01.589Z,7.50
2023-02-17T00:21:32.161Z,7.60
2023-02-17T00:24:00.400Z,7.50
2023-02-17T00:26:27.969Z,7.70
2023-02-17T00:28:59.128Z,7.60
2023-02-17T00:31:26.753Z,7.70
2023-02-17T00:33:56.116Z,7.70
2023-02-17T00:36:24.644Z,7.60
2023-02-17T00:38:53.771Z,7.60
2023-02-17T00:41:22.964Z,7.60
2023-02-17T00:43:50.529Z,7.60
2023-02-17T00:46:18.696Z,7.80
2023-02-17T00:48:47.002Z,7.70
2023-02-17T00:51:15.567Z,7.60
2023-02-17T00:53:43.916Z,7.80
2023-02-17T00:56:12.295Z,7.80
2023-02-17T00:58:41.456Z,7.90
2023-02-17T01:01:10.086Z,7.90
2023-02-17T01:03:42.280Z,7.80
2023-02-17T01:06:15.417Z,8.00
2023-02-17T01:08:43.001Z,7.90
2023-02-17T01:11:18.039Z,7.90
2023-02-17T01:13:46.432Z,8.00
2023-02-17T01:16:19.779Z,8.30
2023-02-17T01:18:47.593Z,8.30
2023-02-17T01:21:33.894Z,8.30
2023-02-17T01:24:05.531Z,8.60
2023-02-17T01:26:35.186Z,8.60
2023-02-17T01:29:04.184Z,8.70
2023-02-17T01:31:31.935Z,8.80
2023-02-17T01:34:02.111Z,8.80
2023-02-17T01:36:29.717Z,8.90
2023-02-17T01:38:57.326Z,8.80
2023-02-17T01:41:27.168Z,8.80
2023-02-17T01:44:13.841Z,8.70
2023-02-17T01:46:43.529Z,8.90
2023-02-17T01:49:26.584Z,9.20
2023-02-17T01:52:20.404Z,9.20
2023-02-17T01:54:50.155Z,9.40
2023-02-17T01:57:22.116Z,9.80
2023-02-17T01:59:50.030Z,9.90
2023-02-17T02:02:18.403Z,10.00
2023-02-17T02:04:49.338Z,10.00
2023-02-17T02:07:22.612Z,10.10
2023-02-17T02:09:53.841Z,10.10
2023-02-17T02:12:28.175Z,10.30
2023-02-17T02:14:59.420Z,10.40
2023-02-17T02:17:44.371Z,10.50
2023-02-17T02:20:29.912Z,10.60
2023-02-17T02:23:22.707Z,10.50
2023-02-17T02:26:27.188Z,10.40
2023-02-17T02:29:19.677Z,10.50
2023-02-17T02:32:28.914Z,10.40
2023-02-17T02:35:05.996Z,10.50
2023-02-17T02:37:39.653Z,10.50
2023-02-17T02:40:10.285Z,10.40
2023-02-17T02:42:40.670Z,10.40
2023-02-17T02:45:10.471Z,10.50
2023-02-17T02:47:51.640Z,10.60
2023-02-17T02:50:56.933Z,10.70
2023-02-17T02:54:03.358Z,10.50
2023-02-17T02:56:50.101Z,10.60
2023-02-17T02:59:20.704Z,10.80
2023-02-17T03:01:54.550Z,10.80
2023-02-17T03:04:37.994Z,10.90
2023-02-17T03:07:47.339Z,11.00
2023-02-17T03:10:15.650Z,11.10
2023-02-17T03:12:44.035Z,11.00
2023-02-17T03:15:18.158Z,11.00
2023-02-17T03:17:45.763Z,11.00
2023-02-17T03:20:14.812Z,10.90
2023-02-17T03:22:47.351Z,11.10
2023-02-17T03:25:16.831Z,11.20
2023-02-17T03:27:44.966Z,11.10
2023-02-17T03:30:13.297Z,10.90
2023-02-17T03:32:41.761Z,11.10
2023-02-17T03:35:09.692Z,11.00
2023-02-17T03:37:37.313Z,11.20
2023-02-17T03:40:06.724Z,11.10
2023-02-17T03:42:34.304Z,11.00
2023-02-17T03:45:01.848Z,11.00
2023-02-17T03:47:29.297Z,11.00
2023-02-17T03:49:56.788Z,10.90
2023-02-17T03:52:24.282Z,10.80
2023-02-17T03:54:52.660Z,10.90
2023-02-17T03:57:20.184Z,10.80
2023-02-17T03:59:47.853Z,10.80
2023-02-17T04:02:15.399Z,11.00
2023-02-17T04:04:43.137Z,10.90
2023-02-17T04:07:10.613Z,10.90
2023-02-17T04:09:38.084Z,10.90
2023-02-17T04:12:05.733Z,11.00
2023-02-17T04:14:33.293Z,11.10
2023-02-17T04:17:00.917Z,11.00
2023-02-17T04:19:28.414Z,11.20
2023-02-17T04:21:55.902Z,11.20
2023-02-17T04:24:23.471Z,11.20
2023-02-17T04:26:50.981Z,11.10
2023-02-17T04:29:18.597Z,11.20
2023-02-17T04:31:46.199Z,11.20
2023-02-17T04:34:13.763Z,11.30
2023-02-17T04:36:43.422Z,11.30
2023-02-17T04:39:12.026Z,11.50
2023-02-17T04:41:39.669Z,11.70
2023-02-17T04:44:07.354Z,11.80
2023-02-17T04:46:34.852Z,11.90
2023-02-17T04:49:02.403Z,12.10
2023-02-17T04:51:29.895Z,12.30
2023-02-17T04:53:57.424Z,12.30
2023-02-17T04:56:24.920Z,12.60
2023-02-17T04:58:52.491Z,12.40
2023-02-17T05:01:19.914Z,12.30
2023-02-17T05:03:47.404Z,12.20
2023-02-17T05:06:15.081Z,12.10
2023-02-17T05:08:43.099Z,12.30
2023-02-17T05:11:10.671Z,12.30
2023-02-17T05:13:38.129Z,12.10
2023-02-17T05:16:05.983Z,12.40
2023-02-17T05:18:33.733Z,12.30
2023-02-17T05:21:01.244Z,12.40
2023-02-17T05:23:28.687Z,12.20
2023-02-17T05:25:56.688Z,12.10
2023-02-17T05:28:24.311Z,12.30
2023-02-17T05:30:51.809Z,12.40
2023-02-17T05:33:19.412Z,12.30
2023-02-17T05:35:47.007Z,12.30
2023-02-17T05:38:14.521Z,12.30
2023-02-17T05:40:41.993Z,12.10
2023-02-17T05:43:09.501Z,12.00
2023-02-17T05:45:37.114Z,12.00
2023-02-17T05:48:04.745Z,12.10
2023-02-17T05:50:32.217Z,12.10
2023-02-17T05:53:03.692Z,11.90
2023-02-17T05:55:31.235Z,11.90
2023-02-17T05:57:58.818Z,11.90
2023-02-17T06:00:26.449Z,11.90
2023-02-17T06:02:53.954Z,11.70
2023-02-17T06:05:21.552Z,11.60
2023-02-17T06:07:49.125Z,11.40
2023-02-17T06:10:16.719Z,11.30
2023-02-17T06:12:44.188Z,11.20
2023-02-17T06:15:11.923Z,11.10
2023-02-17T06:17:39.684Z,11.10
2023-02-17T06:20:08.117Z,11.10
2023-02-17T06:22:35.839Z,11.00
2023-02-17T06:25:03.498Z,11.00
2023-02-17T06:27:31.206Z,10.90
2023-02-17T06:29:58.770Z,10.70
2023-02-17T06:32:26.472Z,10.70
2023-02-17T06:34:53.956Z,10.80
2023-02-17T06:37:21.596Z,10.70
2023-02-17T06:39:49.074Z,10.70
2023-02-17T06:42:16.841Z,10.70
2023-02-17T06:44:44.258Z,10.70
2023-02-17T06:47:11.876Z,10.60
2023-02-17T06:49:40.901Z,10.40
2023-02-17T06:52:08.665Z,10.30
2023-02-17T06:54:36.076Z,10.30
2023-02-17T06:57:03.837Z,10.20
2023-02-17T06:59:33.824Z,10.10
2023-02-17T07:02:02.570Z,10.20
2023-02-17T07:04:30.380Z,10.10
2023-02-17T07:06:57.917Z,10.00
2023-02-17T07:09:25.415Z,10.00
2023-02-17T07:11:53.558Z,10.00
2023-02-17T07:14:21.960Z,9.90
2023-02-17T07:16:51.450Z,9.90
2023-02-17T07:19:19.458Z,9.80
2023-02-17T07:21:47.525Z,9.80
2023-02-17T07:24:15.083Z,9.70
2023-02-17T07:26:42.922Z,9.60
2023-02-17T07:29:10.666Z,9.50
2023-02-17T07:31:38.188Z,9.50
2023-02-17T07:34:05.792Z,9.40
2023-02-17T07:36:33.451Z,9.40
2023-02-17T07:39:00.952Z,9.30
2023-02-17T07:41:28.805Z,9.30
2023-02-17T07:43:57.774Z,9.20
2023-02-17T07:46:26.793Z,9.20
2023-02-17T07:48:55.029Z,9.20
2023-02-17T07:51:23.710Z,9.10
2023-02-17T07:53:52.196Z,9.10
2023-02-17T07:56:21.731Z,9.00
2023-02-17T07:58:50.174Z,8.90
2023-02-17T08:01:20.614Z,8.80
2023-02-17T08:03:49.031Z,8.70
2023-02-17T08:06:22.523Z,8.60
2023-02-17T08:09:10.120Z,8.50
2023-02-17T08:11:56.452Z,8.40
2023-02-17T08:14:25.966Z,8.50
2023-02-17T08:16:54.115Z,8.50
2023-02-17T08:19:22.371Z,8.40
2023-02-17T08:21:50.058Z,8.50
2023-02-17T08:24:19.699Z,8.50
2023-02-17T08:26:48.534Z,8.50
2023-02-17T08:29:16.629Z,8.50
2023-02-17T08:31:44.703Z,8.50
2023-02-17T08:34:13.728Z,8.50
2023-02-17T08:36:41.542Z,8.50
2023-02-17T08:39:13.285Z,8.40
2023-02-17T08:41:42.350Z,8.30
2023-02-17T08:44:13.973Z,8.30
2023-02-17T08:46:43.131Z,8.30
2023-02-17T08:49:11.228Z,8.30
2023-02-17T08:51:39.105Z,8.30
2023-02-17T08:54:08.931Z,8.20
2023-02-17T08:56:37.824Z,8.30
2023-02-17T08:59:06.809Z,8.20
2023-02-17T09:01:35.478Z,8.20
2023-02-17T09:04:07.667Z,8.10
2023-02-17T09:06:47.400Z,8.10
2023-02-17T09:09:17.520Z,8.10
2023-02-17T09:11:45.556Z,8.00
2023-02-17T09:14:13.270Z,8.10
2023-02-17T09:16:41.724Z,8.00
2023-02-17T09:19:09.310Z,8.10
2023-02-17T09:21:37.168Z,8.10
2023-02-17T09:24:05.058Z,8.10
2023-02-17T09:26:35.107Z,8.10
2023-02-17T09:29:04.086Z,8.10
2023-02-17T09:31:32.182Z,8.10
2023-02-17T09:34:00.032Z,8.10
2023-02-17T09:36:30.706Z,8.10
2023-02-17T09:38:58.535Z,8.10
2023-02-17T09:41:39.333Z,8.10
2023-02-17T09:44:18.794Z,8.10
2023-02-17T09:47:02.071Z,8.10
2023-02-17T09:50:08.243Z,8.10
2023-02-17T09:52:41.479Z,8.10
2023-02-17T09:55:28.211Z,8.20
2023-02-17T09:58:15.265Z,8.10
2023-02-17T10:00:53.693Z,8.20
2023-02-17T10:03:31.234Z,8.20
2023-02-17T10:06:10.900Z,8.20
2023-02-17T10:08:48.584Z,8.30
2023-02-17T10:11:36.346Z,8.30
2023-02-17T10:14:14.141Z,8.30
2023-02-17T10:16:49.956Z,8.30
2023-02-17T10:19:24.949Z,8.20
2023-02-17T10:22:17.902Z,8.20
2023-02-17T10:24:45.456Z,8.10
2023-02-17T10:27:36.606Z,8.20
2023-02-17T10:30:42.263Z,8.10
2023-02-17T10:33:38.195Z,8.10
2023-02-17T10:36:12.194Z,8.10
2023-02-17T10:38:54.234Z,8.10
2023-02-17T10:41:27.050Z,8.10
2023-02-17T10:43:55.185Z,8.10
2023-02-17T10:46:29.298Z,8.10
2023-02-17T10:48:58.713Z,8.20
2023-02-17T10:51:31.282Z,8.10
2023-02-17T10:54:13.081Z,8.20
2023-02-17T10:56:46.925Z,8.30
2023-02-17T10:59:26.257Z,8.30
2023-02-17T11:02:00.711Z,8.30
2023-02-17T11:04:28.256Z,8.20
2023-02-17T11:06:58.432Z,8.30
2023-02-17T11:09:32.082Z,8.30
2023-02-17T11:12:11.562Z,8.40
2023-02-17T11:14:48.679Z,8.50
2023-02-17T11:17:35.269Z,8.50
2023-02-17T11:20:04.938Z,8.50
2023-02-17T11:22:45.857Z,8.40
2023-02-17T11:25:30.156Z,8.50
2023-02-17T11:28:00.466Z,8.50
2023-02-17T11:30:30.961Z,8.70
2023-02-17T11:32:58.601Z,8.70
2023-02-17T11:35:38.457Z,8.80
2023-02-17T11:38:13.297Z,8.80
2023-02-17T11:40:43.502Z,8.80
2023-02-17T11:43:19.175Z,8.90
2023-02-17T11:45:52.588Z,9.00
2023-02-17T11:50:40.852Z,9.00
2023-02-17T11:53:46.817Z,9.10
2023-02-17T11:56:19.343Z,9.10
2023-02-17T11:59:05.331Z,9.40
2023-02-17T12:01:54.132Z,9.40
2023-02-17T12:04:25.740Z,9.40
2023-02-17T12:07:11.948Z,9.50
2023-02-17T12:09:45.481Z,9.40
2023-02-17T12:12:21.596Z,9.20
2023-02-17T12:15:16.232Z,9.20
2023-02-17T12:18:06.213Z,9.40
2023-02-17T12:20:33.716Z,9.30
2023-02-17T12:23:19.451Z,9.30
2023-02-17T12:25:49.648Z,9.30
2023-02-17T12:28:41.200Z,9.30
2023-02-17T12:34:17.898Z,9.60
2023-02-17T12:36:47.095Z,9.50
2023-02-17T12:39:43.378Z,9.40
2023-02-17T12:42:17.710Z,9.50
2023-02-17T12:44:51.020Z,9.60
2023-02-17T12:47:47.948Z,9.70
2023-02-17T12:50:24.946Z,9.60
2023-02-17T12:52:57.763Z,9.50
2023-02-17T12:55:30.895Z,9.50
2023-02-17T12:58:07.343Z,9.50
2023-02-17T13:00:48.413Z,9.60
2023-02-17T13:03:16.072Z,9.50
2023-02-17T13:05:51.537Z,9.60
2023-02-17T13:11:25.338Z,9.50
2023-02-17T13:13:52.841Z,9.50
2023-02-17T13:16:20.317Z,9.40
2023-02-17T13:18:51.594Z,9.50
2023-02-17T13:21:32.389Z,9.60
2023-02-17T13:24:01.901Z,9.80
2023-02-17T13:26:34.627Z,9.40
2023-02-17T13:29:25.935Z,9.50
2023-02-17T13:31:59.985Z,9.60
2023-02-17T13:34:39.355Z,9.70
2023-02-17T13:37:18.858Z,9.80
2023-02-17T13:39:46.828Z,9.90
2023-02-17T13:42:29.365Z,9.90
2023-02-17T13:44:58.523Z,9.60
2023-02-17T13:47:37.879Z,9.50
2023-02-17T13:50:06.586Z,9.60
2023-02-17T13:52:34.089Z,9.70
2023-02-17T13:55:05.863Z,9.60
2023-02-17T13:57:35.951Z,9.70
2023-02-17T14:00:19.347Z,9.90
2023-02-17T14:02:54.298Z,9.70
2023-02-17T14:05:28.644Z,9.80
2023-02-17T14:08:12.053Z,9.80
2023-02-17T14:10:40.034Z,9.80
2023-02-17T14:13:10.665Z,9.90
2023-02-17T14:15:38.793Z,9.90
2023-02-17T14:18:14.265Z,9.90
2023-02-17T14:20:41.926Z,9.60
2023-02-17T14:23:12.709Z,9.30
2023-02-17T14:25:51.584Z,9.00
2023-02-17T14:28:25.920Z,9.00
2023-02-17T14:30:54.058Z,8.90
2023-02-17T14:33:24.710Z,8.80
2023-02-17T14:36:02.834Z,8.80
2023-02-17T14:38:35.306Z,8.90
2023-02-17T14:41:04.254Z,8.90
2023-02-17T14:43:31.797Z,8.80
2023-02-17T14:45:59.512Z,8.80
2023-02-17T14:48:28.007Z,8.80
2023-02-17T14:50:58.831Z,8.70
2023-02-17T14:53:36.448Z,8.70
2023-02-17T14:56:27.797Z,8.70
2023-02-17T14:58:55.588Z,8.70
2023-02-17T15:01:24.441Z,8.80
2023-02-17T15:03:53.322Z,8.80
2023-02-17T15:06:27.094Z,8.80
2023-02-17T15:08:56.368Z,8.80
2023-02-17T15:11:30.307Z,8.90
2023-02-17T15:13:58.253Z,8.80
2023-02-17T15:16:25.791Z,8.80
2023-02-17T15:18:53.300Z,8.60
2023-02-17T15:21:29.900Z,8.50
2023-02-17T15:23:59.586Z,8.50
2023-02-17T15:26:30.448Z,8.50
2023-02-17T15:28:58.880Z,8.50
2023-02-17T15:31:29.781Z,8.40
2023-02-17T15:34:01.148Z,8.40
2023-02-17T15:36:29.147Z,8.40
2023-02-17T15:38:56.627Z,8.50
2023-02-17T15:41:27.083Z,8.60
2023-02-17T15:43:56.955Z,8.50
2023-02-17T15:46:31.177Z,8.50
2023-02-17T15:48:59.614Z,8.50
2023-02-17T15:51:27.205Z,8.50
2023-02-17T15:53:54.809Z,8.40
2023-02-17T15:56:26.307Z,8.30
2023-02-17T15:58:54.549Z,8.20
2023-02-17T16:01:28.311Z,8.10
2023-02-17T16:03:57.440Z,8.10
2023-02-17T16:06:26.637Z,8.00
2023-02-17T16:08:54.490Z,8.00
2023-02-17T16:11:22.979Z,7.90
2023-02-17T16:13:52.039Z,7.90
2023-02-17T16:16:38.715Z,7.90
2023-02-17T16:19:06.285Z,7.70
2023-02-17T16:21:33.829Z,7.60
2023-02-17T16:24:01.414Z,7.60
2023-02-17T16:26:35.458Z,7.60
2023-02-17T16:29:10.279Z,7.60
2023-02-17T16:31:37.900Z,7.60
2023-02-17T16:34:05.579Z,7.60
2023-02-17T16:36:35.689Z,7.60
2023-02-17T16:39:12.827Z,7.60
2023-02-17T16:41:40.706Z,7.60
2023-02-17T16:44:11.890Z,7.60
2023-02-17T16:46:44.878Z,7.70
2023-02-17T16:49:33.989Z,7.60
2023-02-17T16:52:07.487Z,7.60
2023-02-17T16:54:35.844Z,7.60
2023-02-17T16:57:04.100Z,7.70
2023-02-17T16:59:31.732Z,7.60
2023-02-17T17:01:59.205Z,7.70
2023-02-17T17:04:26.700Z,7.60
2023-02-17T17:06:54.193Z,7.60
2023-02-17T17:09:25.906Z,7.60
2023-02-17T17:11:53.457Z,7.60
2023-02-17T17:14:21.908Z,7.60
2023-02-17T17:16:55.309Z,7.60
2023-02-17T17:19:23.139Z,7.60
2023-02-17T17:21:51.010Z,7.50
2023-02-17T17:24:18.633Z,7.50
2023-02-17T17:26:48.135Z,7.60
2023-02-17T17:29:17.496Z,7.50
2023-02-17T17:31:45.346Z,7.50
2023-02-17T17:34:13.035Z,7.50
2023-02-17T17:36:45.838Z,7.40
2023-02-17T17:39:19.352Z,7.40
2023-02-17T17:41:47.339Z,7.40
2023-02-17T17:44:15.477Z,7.40
2023-02-17T17:46:43.282Z,7.30
2023-02-17T17:49:14.076Z,7.30
2023-02-17T17:51:41.902Z,7.30
2023-02-17T17:54:10.621Z,7.30
2023-02-17T17:56:42.594Z,7.30
2023-02-17T17:59:11.566Z,7.30
2023-02-17T18:01:39.183Z,7.30
2023-02-17T18:04:08.858Z,7.30
2023-02-17T18:06:43.349Z,7.30
2023-02-17T18:09:30.296Z,7.30
2023-02-17T18:12:04.581Z,7.20
2023-02-17T18:14:32.478Z,7.30
2023-02-17T18:17:00.141Z,7.20
2023-02-17T18:19:29.438Z,7.20
2023-02-17T18:21:57.022Z,7.30
2023-02-17T18:24:24.598Z,7.30
2023-02-17T18:26:52.351Z,7.30
2023-02-17T18:29:20.517Z,7.20
2023-02-17T18:31:48.177Z,7.20
2023-02-17T18:34:15.833Z,7.20
2023-02-17T18:36:43.404Z,7.30
2023-02-17T18:39:10.941Z,7.30
2023-02-17T18:41:38.512Z,7.30
2023-02-17T18:44:06.164Z,7.30
2023-02-17T18:46:34.005Z,7.40
2023-02-17T18:49:01.588Z,7.40
2023-02-17T18:51:29.108Z,7.30
2023-02-17T18:53:58.821Z,7.40
2023-02-17T18:56:29.693Z,7.40
2023-02-17T18:58:57.643Z,7.40
2023-02-17T19:01:25.138Z,7.40
2023-02-17T19:03:53.068Z,7.40
2023-02-17T19:06:23.762Z,7.40
2023-02-17T19:08:51.534Z,7.30
2023-02-17T19:11:21.778Z,7.30
2023-02-17T19:13:50.007Z,7.30
2023-02-17T19:16:24.469Z,7.20
2023-02-17T19:18:52.793Z,7.20
2023-02-17T19:21:21.317Z,7.20
2023-02-17T19:23:49.803Z,7.20
2023-02-17T19:26:18.874Z,7.10
2023-02-17T19:28:46.978Z,7.10
2023-02-17T19:31:17.510Z,7.10
2023-02-17T19:33:45.903Z,7.10
2023-02-17T19:36:19.721Z,7.10
2023-02-17T19:38:48.480Z,7.10
2023-02-17T19:41:20.334Z,7.10
2023-02-17T19:43:48.208Z,7.10
2023-02-17T19:46:19.931Z,7.20
2023-02-17T19:48:47.455Z,7.10
2023-02-17T19:51:14.992Z,7.10
2023-02-17T19:53:43.992Z,7.10
2023-02-17T19:56:25.086Z,7.00
2023-02-17T19:58:53.178Z,7.00
2023-02-17T20:01:26.665Z,7.00
2023-02-17T20:03:55.591Z,7.00
2023-02-17T20:06:27.098Z,7.00
2023-02-17T20:09:03.143Z,7.00
2023-02-17T20:11:32.032Z,7.00
2023-02-17T20:14:01.272Z,7.00
2023-02-17T20:17:58.293Z,7.00
2023-02-17T20:20:25.974Z,7.00
2023-02-17T20:22:53.485Z,7.10
2023-02-17T20:25:21.190Z,7.00
2023-02-17T20:27:48.674Z,7.00
2023-02-17T20:30:16.357Z,7.00
2023-02-17T20:32:43.824Z,7.00
2023-02-17T20:35:14.271Z,7.00
2023-02-17T20:37:41.880Z,6.90
2023-02-17T20:40:09.608Z,6.90
2023-02-17T20:42:37.115Z,6.90
2023-02-17T20:45:05.254Z,6.90
2023-02-17T20:47:32.837Z,6.90
2023-02-17T20:50:00.355Z,6.90
2023-02-17T20:52:27.848Z,6.90
2023-02-17T20:54:55.358Z,6.90
2023-02-17T20:57:23.484Z,6.90
2023-02-17T20:59:50.886Z,6.90
2023-02-17T21:02:18.451Z,6.90
2023-02-17T21:04:46.005Z,6.80
2023-02-17T21:07:13.515Z,6.90
2023-02-17T21:09:41.018Z,6.90
2023-02-17T21:12:08.579Z,6.90
2023-02-17T21:14:36.023Z,6.90
2023-02-17T21:17:03.603Z,6.80
2023-02-17T21:19:31.085Z,6.80
2023-02-17T21:21:59.133Z,6.80
2023-02-17T21:24:26.702Z,6.80
2023-02-17T21:26:54.174Z,6.80
2023-02-17T21:29:21.683Z,6.80
2023-02-17T21:31:49.586Z,6.80
2023-02-17T21:34:17.263Z,6.70
2023-02-17T21:36:45.032Z,6.70
2023-02-17T21:39:13.129Z,6.70
2023-02-17T21:41:42.220Z,6.70
2023-02-17T21:44:32.046Z,6.70
2023-02-17T21:46:59.601Z,6.70
2023-02-17T21:49:27.179Z,6.70
2023-02-17T21:51:57.468Z,6.80
2023-02-17T21:54:25.093Z,6.80
2023-02-17T21:56:52.590Z,6.80
2023-02-17T21:59:20.095Z,6.80
2023-02-17T22:01:47.838Z,6.90
2023-02-17T22:04:15.389Z,6.90
2023-02-17T22:06:43.405Z,6.80
2023-02-17T22:09:14.768Z,6.80
2023-02-17T22:11:44.171Z,6.80
2023-02-17T22:14:17.555Z,6.80
2023-02-17T22:16:46.166Z,6.80
2023-02-17T22:19:17.072Z,6.80
2023-02-17T22:21:44.891Z,6.80
2023-02-17T22:24:13.205Z,6.80
2023-02-17T22:26:41.219Z,6.80
2023-02-17T22:29:09.034Z,6.80
2023-02-17T22:31:36.785Z,6.80
2023-02-17T22:34:07.896Z,6.90
2023-02-17T22:36:36.977Z,6.90
2023-02-17T22:39:06.539Z,6.90
2023-02-17T22:41:35.100Z,6.80
2023-02-17T22:44:03.322Z,6.80
2023-02-17T22:46:31.830Z,6.70
2023-02-17T22:49:00.056Z,6.70
2023-02-17T22:51:34.760Z,6.70
2023-02-17T22:54:02.832Z,6.80
2023-02-17T22:56:31.119Z,6.80
2023-02-17T22:59:01.690Z,6.80
2023-02-17T23:01:31.068Z,6.70
2023-02-17T23:03:59.053Z,6.70
2023-02-17T23:06:30.457Z,6.70
2023-02-17T23:08:59.062Z,6.70
2023-02-17T23:11:47.965Z,6.70
2023-02-17T23:14:17.939Z,6.70
2023-02-17T23:16:45.712Z,6.70
2023-02-17T23:19:17.209Z,6.70
2023-02-17T23:21:51.031Z,6.70
2023-02-17T23:24:20.466Z,6.70
2023-02-17T23:26:49.097Z,6.80
2023-02-17T23:29:17.154Z,6.80
2023-02-17T23:31:45.215Z,6.80
2023-02-17T23:34:14.864Z,6.80
2023-02-17T23:36:44.203Z,6.70
2023-02-17T23:39:12.329Z,6.80
2023-02-17T23:41:40.313Z,6.70
2023-02-17T23:44:09.684Z,6.70
2023-02-17T23:46:38.360Z,6.60
2023-02-17T23:49:06.165Z,6.60
2023-02-17T23:51:33.759Z,6.50
2023-02-17T23:54:01.449Z,6.50
2023-02-17T23:56:33.140Z,6.50
2023-02-17T23:59:02.227Z,6.50
